Time;durP1;ratioP1;P1;durP2;ratioP2;P2;SDS_P1;SDS_P2;PMS_P1;PMS_P2;Temp;Humidity;BMP_temperature;BMP_pressure;BME280_temperature;BME280_humidity;BME280_pressure;Samples;Min_cycle;Max_cycle;Signal;HPM_P1;HPM_P2
2022/07/23 00:01:04;;;;;;;6.47;4.10;;;16.50;99.90;;;;;;4960849;28;20432;-78
2022/07/23 00:03:32;;;;;;;5.37;3.80;;;16.50;99.90;;;;;;4960055;28;20536;-78
2022/07/23 00:06:02;;;;;;;5.40;4.33;;;16.50;99.90;;;;;;4961537;28;20441;-78
2022/07/23 00:08:37;;;;;;;3.90;3.50;;;16.40;99.90;;;;;;4960118;28;20477;-78
2022/07/23 00:11:05;;;;;;;4.93;4.40;;;16.40;99.90;;;;;;4960185;28;20442;-77
2022/07/23 00:13:33;;;;;;;5.00;4.27;;;16.40;99.90;;;;;;4960138;28;20492;-77
2022/07/23 00:16:01;;;;;;;4.70;4.30;;;16.30;99.90;;;;;;4977354;28;20442;-78
2022/07/23 00:18:30;;;;;;;5.70;4.80;;;16.30;99.90;;;;;;4977685;28;20448;-78
2022/07/23 00:20:58;;;;;;;5.07;4.57;;;16.20;99.90;;;;;;4959256;28;20545;-77
2022/07/23 00:23:28;;;;;;;5.23;4.73;;;16.20;99.90;;;;;;4958768;28;20538;-77
2022/07/23 00:25:57;;;;;;;6.90;5.00;;;16.20;99.90;;;;;;4959612;28;20413;-78
2022/07/23 00:28:25;;;;;;;5.03;4.07;;;16.20;99.90;;;;;;4959327;28;20543;-78
2022/07/23 00:30:53;;;;;;;5.60;4.80;;;16.20;99.90;;;;;;4958541;28;20424;-78
2022/07/23 00:33:22;;;;;;;5.90;5.27;;;16.10;99.90;;;;;;4959434;28;21039;-77
2022/07/23 00:35:50;;;;;;;6.00;5.40;;;16.10;99.90;;;;;;4959206;28;20432;-78
2022/07/23 00:38:18;;;;;;;5.80;5.20;;;16.00;99.90;;;;;;4959324;28;20456;-78
2022/07/23 00:40:47;;;;;;;9.23;5.40;;;16.10;99.90;;;;;;4959245;28;20424;-78
2022/07/23 00:43:16;;;;;;;5.37;4.87;;;16.00;99.90;;;;;;4976097;28;20467;-77
2022/07/23 00:45:44;;;;;;;6.13;5.30;;;16.00;99.90;;;;;;4976129;28;20838;-78
2022/07/23 00:48:13;;;;;;;6.97;4.90;;;16.00;99.90;;;;;;4958947;28;21124;-78
2022/07/23 00:50:42;;;;;;;6.40;4.90;;;16.00;99.90;;;;;;4959084;28;20455;-77
2022/07/23 00:53:11;;;;;;;6.53;5.80;;;15.90;99.90;;;;;;4958704;28;20494;-78
2022/07/23 00:55:40;;;;;;;6.90;5.17;;;15.90;99.90;;;;;;4966000;28;20519;-78
2022/07/23 00:58:10;;;;;;;6.20;5.60;;;15.90;99.90;;;;;;4970359;28;20481;-78
2022/07/23 01:00:39;;;;;;;6.80;5.37;;;15.90;99.90;;;;;;4975248;28;20482;-78
2022/07/23 01:03:08;;;;;;;9.23;5.40;;;15.90;99.90;;;;;;4960717;28;20560;-78
2022/07/23 01:05:36;;;;;;;7.10;5.83;;;15.90;99.90;;;;;;4959984;28;20555;-78
2022/07/23 01:08:06;;;;;;;8.83;6.03;;;15.90;99.90;;;;;;4976927;28;20508;-78
2022/07/23 01:10:34;;;;;;;5.90;5.30;;;15.90;99.90;;;;;;4959703;28;20428;-77
2022/07/23 01:13:05;;;;;;;6.20;5.60;;;15.90;99.90;;;;;;4959726;28;20595;-78
2022/07/23 01:15:36;;;;;;;7.93;6.20;;;15.90;99.90;;;;;;4959573;28;20446;-78
2022/07/23 01:18:06;;;;;;;8.63;6.53;;;15.90;99.90;;;;;;4959206;28;20421;-78
2022/07/23 01:20:36;;;;;;;10.13;6.50;;;15.80;99.90;;;;;;4959195;28;20967;-78
2022/07/23 01:23:06;;;;;;;6.53;5.93;;;15.80;99.90;;;;;;4958519;28;20572;-78
2022/07/23 01:25:35;;;;;;;6.47;5.87;;;15.80;99.90;;;;;;4959319;28;20477;-78
2022/07/23 01:28:05;;;;;;;7.37;6.23;;;15.80;99.90;;;;;;4958669;28;20464;-78
2022/07/23 01:30:33;;;;;;;8.80;6.27;;;15.80;99.90;;;;;;4976229;28;20408;-78
2022/07/23 01:33:05;;;;;;;8.83;7.40;;;15.80;99.90;;;;;;4959113;28;20460;-78
2022/07/23 01:35:33;;;;;;;6.70;6.00;;;15.80;99.90;;;;;;4959145;28;20581;-78
2022/07/23 01:38:06;;;;;;;7.20;6.53;;;15.80;99.90;;;;;;4959344;28;20458;-78
2022/07/23 01:40:35;;;;;;;6.37;5.77;;;15.80;99.90;;;;;;4959259;28;20476;-78
2022/07/23 01:43:05;;;;;;;7.00;6.40;;;15.80;99.90;;;;;;4958329;28;20459;-78
2022/07/23 01:45:36;;;;;;;7.73;6.37;;;15.80;99.90;;;;;;4958995;28;20467;-78
2022/07/23 01:48:05;;;;;;;8.00;6.47;;;15.80;99.90;;;;;;4958452;28;20424;-78
2022/07/23 01:50:40;;;;;;;7.10;6.40;;;15.80;99.90;;;;;;4959389;28;20408;-78
2022/07/23 01:53:17;;;;;;;9.20;6.80;;;15.80;99.90;;;;;;4958580;28;20444;-77
2022/07/23 01:55:45;;;;;;;6.77;6.17;;;15.80;99.90;;;;;;4958612;28;20429;-78
2022/07/23 01:58:14;;;;;;;7.00;6.30;;;15.80;99.90;;;;;;4975751;28;20417;-78
2022/07/23 02:00:42;;;;;;;7.00;6.40;;;15.80;99.90;;;;;;4958489;28;20500;-78
2022/07/23 02:03:10;;;;;;;8.57;6.20;;;15.80;99.90;;;;;;4975866;28;20472;-78
2022/07/23 02:05:38;;;;;;;7.27;6.60;;;15.80;99.90;;;;;;4976093;28;20461;-78
2022/07/23 02:08:07;;;;;;;6.87;6.10;;;15.80;99.90;;;;;;4958947;28;20464;-77
2022/07/23 02:10:39;;;;;;;10.43;6.70;;;15.80;99.90;;;;;;4958667;28;20423;-78
2022/07/23 02:13:07;;;;;;;9.07;6.50;;;15.80;99.90;;;;;;4958405;28;20582;-78
2022/07/23 02:15:35;;;;;;;6.73;6.10;;;15.80;99.90;;;;;;4958277;28;20548;-77
2022/07/23 02:18:04;;;;;;;6.57;5.97;;;15.80;99.90;;;;;;4975753;28;20424;-78
2022/07/23 02:20:33;;;;;;;8.30;7.17;;;15.80;99.90;;;;;;4958330;28;20495;-78
2022/07/23 02:23:01;;;;;;;6.83;5.90;;;15.80;99.90;;;;;;4958244;28;20991;-78
2022/07/23 02:25:29;;;;;;;7.00;6.13;;;15.80;99.90;;;;;;4958992;28;20536;-78
2022/07/23 02:28:03;;;;;;;10.10;6.37;;;15.80;99.90;;;;;;4958489;28;20432;-78
2022/07/23 02:30:31;;;;;;;7.30;6.60;;;15.80;99.90;;;;;;4958733;28;20473;-78
2022/07/23 02:33:02;;;;;;;8.03;6.77;;;15.80;99.90;;;;;;4958714;28;20492;-78
2022/07/23 02:35:30;;;;;;;7.13;6.53;;;15.80;99.90;;;;;;4958822;28;20553;-78
2022/07/23 02:38:02;;;;;;;6.77;6.00;;;15.80;99.90;;;;;;4962353;28;20962;-78
2022/07/23 02:40:31;;;;;;;7.50;6.70;;;15.80;99.90;;;;;;4962667;28;20450;-78
2022/07/23 02:43:00;;;;;;;7.93;7.13;;;15.80;99.90;;;;;;4963125;28;20462;-78
2022/07/23 02:45:30;;;;;;;6.87;6.23;;;15.80;99.90;;;;;;4961353;28;21029;-78
2022/07/23 02:47:59;;;;;;;8.93;6.20;;;15.80;99.90;;;;;;4958593;28;20941;-78
2022/07/23 02:50:27;;;;;;;9.23;7.47;;;15.80;99.90;;;;;;4958778;28;20452;-78
2022/07/23 02:52:58;;;;;;;6.87;6.17;;;15.70;99.90;;;;;;4958266;28;20470;-78
2022/07/23 02:55:27;;;;;;;9.10;6.40;;;15.70;99.90;;;;;;4962109;28;20454;-78
2022/07/23 02:57:55;;;;;;;6.70;5.53;;;15.80;99.90;;;;;;4962281;28;20492;-78
2022/07/23 03:00:24;;;;;;;8.17;7.47;;;15.70;99.90;;;;;;4961783;28;20785;-78
2022/07/23 03:02:54;;;;;;;6.57;5.87;;;15.70;99.90;;;;;;4961872;28;20443;-78
2022/07/23 03:05:22;;;;;;;6.27;5.70;;;15.70;99.90;;;;;;4961732;28;20450;-78
2022/07/23 03:07:51;;;;;;;8.07;6.10;;;15.70;99.90;;;;;;4961919;28;21017;-77
2022/07/23 03:10:21;;;;;;;6.47;5.87;;;15.70;99.90;;;;;;4961774;28;20473;-77
2022/07/23 03:12:49;;;;;;;7.67;6.77;;;15.70;99.90;;;;;;4979514;28;20538;-78
2022/07/23 03:15:18;;;;;;;6.90;6.30;;;15.70;99.90;;;;;;4962460;28;20523;-78
2022/07/23 03:17:46;;;;;;;7.37;6.77;;;15.70;99.90;;;;;;4962531;28;20805;-78
2022/07/23 03:20:16;;;;;;;7.77;7.13;;;15.70;99.90;;;;;;4961884;28;20420;-78
2022/07/23 03:22:44;;;;;;;7.23;6.07;;;15.60;99.90;;;;;;4961504;28;20843;-78
2022/07/23 03:25:12;;;;;;;10.33;6.40;;;15.70;99.90;;;;;;4979072;28;20471;-78
2022/07/23 03:27:41;;;;;;;6.73;6.13;;;15.60;99.90;;;;;;4961404;28;20446;-78
2022/07/23 03:30:11;;;;;;;8.10;7.20;;;15.70;99.90;;;;;;4961722;28;20481;-78
2022/07/23 03:32:39;;;;;;;7.83;6.50;;;15.60;99.90;;;;;;4962285;28;20448;-78
2022/07/23 03:35:08;;;;;;;9.70;7.27;;;15.60;99.90;;;;;;4961436;28;20452;-78
2022/07/23 03:37:44;;;;;;;7.10;6.20;;;15.60;99.90;;;;;;4961483;28;20561;-78
2022/07/23 03:40:14;;;;;;;7.13;6.40;;;15.60;99.90;;;;;;4961119;28;20529;-78
2022/07/23 03:42:43;;;;;;;8.60;6.73;;;15.60;99.90;;;;;;4960801;28;20457;-78
2022/07/23 03:45:11;;;;;;;8.57;6.73;;;15.60;99.90;;;;;;4960903;28;20491;-78
2022/07/23 03:47:39;;;;;;;7.53;6.27;;;15.50;99.90;;;;;;4960952;28;20452;-78
2022/07/23 03:50:09;;;;;;;11.27;6.77;;;15.50;99.90;;;;;;4960730;28;20448;-78
2022/07/23 03:52:38;;;;;;;9.53;7.20;;;15.50;99.90;;;;;;4960749;28;20470;-77
2022/07/23 03:55:08;;;;;;;9.33;7.13;;;15.40;99.90;;;;;;4960931;28;20544;-78
2022/07/23 03:57:37;;;;;;;8.20;7.07;;;15.40;99.90;;;;;;4960589;28;20783;-78
2022/07/23 04:00:08;;;;;;;10.33;8.00;;;15.40;99.90;;;;;;4960626;28;20536;-78
2022/07/23 04:02:40;;;;;;;9.40;7.93;;;15.40;99.90;;;;;;4977881;28;20483;-78
2022/07/23 04:05:10;;;;;;;9.03;8.17;;;15.30;99.90;;;;;;4960602;28;20417;-78
2022/07/23 04:07:40;;;;;;;9.33;7.80;;;15.30;99.90;;;;;;4960340;28;20982;-78
2022/07/23 04:10:10;;;;;;;10.70;7.50;;;15.30;99.90;;;;;;4959821;28;20455;-78
2022/07/23 04:12:38;;;;;;;9.47;7.97;;;15.30;99.90;;;;;;4977174;28;20458;-78
2022/07/23 04:15:09;;;;;;;10.80;7.33;;;15.30;99.90;;;;;;4977297;28;20423;-78
2022/07/23 04:17:37;;;;;;;9.60;7.97;;;15.30;99.90;;;;;;4960061;28;20447;-78
2022/07/23 04:20:07;;;;;;;7.40;6.70;;;15.20;99.90;;;;;;4960023;28;20472;-78
2022/07/23 04:22:43;;;;;;;9.17;7.57;;;15.20;99.90;;;;;;4960236;28;20466;-78
2022/07/23 04:25:13;;;;;;;10.80;7.97;;;15.20;99.90;;;;;;4959954;28;20457;-78
2022/07/23 04:27:41;;;;;;;8.77;7.90;;;15.20;99.90;;;;;;4977811;28;20428;-78
2022/07/23 04:30:10;;;;;;;10.07;9.07;;;15.20;99.90;;;;;;4959805;28;20488;-78
2022/07/23 04:32:38;;;;;;;9.27;7.73;;;15.20;99.90;;;;;;4959743;28;20465;-77
2022/07/23 04:35:14;;;;;;;10.43;8.83;;;15.20;99.90;;;;;;4960951;28;20780;-78
2022/07/23 04:37:42;;;;;;;7.70;6.97;;;15.10;99.90;;;;;;4960366;28;20958;-78
2022/07/23 04:40:13;;;;;;;9.70;8.77;;;15.10;99.90;;;;;;4959913;28;20818;-78
2022/07/23 04:42:41;;;;;;;8.33;7.47;;;15.10;99.90;;;;;;4959170;28;20440;-78
2022/07/23 04:45:10;;;;;;;8.60;7.80;;;15.20;99.90;;;;;;4959889;28;20523;-78
2022/07/23 04:47:41;;;;;;;8.77;7.67;;;15.20;99.90;;;;;;4960042;28;20441;-78
2022/07/23 04:50:10;;;;;;;11.27;7.40;;;15.10;99.90;;;;;;4959625;28;20478;-78
2022/07/23 04:52:40;;;;;;;8.47;7.50;;;15.10;99.90;;;;;;4959290;28;20448;-78
2022/07/23 04:55:09;;;;;;;10.57;7.93;;;15.10;99.90;;;;;;4960550;28;20427;-78
2022/07/23 04:57:39;;;;;;;9.00;8.10;;;15.10;99.90;;;;;;4960323;28;20477;-78
2022/07/23 05:00:09;;;;;;;9.70;8.37;;;15.10;99.90;;;;;;4960379;28;20431;-78
2022/07/23 05:02:37;;;;;;;8.17;7.37;;;15.10;99.90;;;;;;4960242;28;20440;-79
2022/07/23 05:05:06;;;;;;;9.93;7.97;;;15.10;99.90;;;;;;4960285;28;20458;-78
2022/07/23 05:07:35;;;;;;;9.47;8.47;;;15.10;99.90;;;;;;4960304;28;20794;-78
2022/07/23 05:10:03;;;;;;;13.67;9.17;;;15.10;99.90;;;;;;4960433;28;20436;-78
2022/07/23 05:12:32;;;;;;;8.97;8.13;;;15.10;99.90;;;;;;4960218;28;20452;-78
2022/07/23 05:15:02;;;;;;;9.43;8.63;;;15.10;99.90;;;;;;4960254;28;20453;-78
2022/07/23 05:17:31;;;;;;;10.23;8.40;;;15.20;99.90;;;;;;4959103;28;20449;-78
2022/07/23 05:19:59;;;;;;;12.47;8.23;;;15.20;99.90;;;;;;4959678;28;20480;-78
2022/07/23 05:22:30;;;;;;;9.70;7.40;;;15.20;99.90;;;;;;4959541;28;20520;-78
2022/07/23 05:24:58;;;;;;;8.40;7.60;;;15.20;99.90;;;;;;4959806;28;20464;-78
2022/07/23 05:27:26;;;;;;;8.33;7.53;;;15.20;99.90;;;;;;4960049;28;20471;-78
2022/07/23 05:29:56;;;;;;;8.93;8.03;;;15.30;99.90;;;;;;4960483;28;20484;-79
2022/07/23 05:32:26;;;;;;;7.97;7.27;;;15.30;99.90;;;;;;4959605;28;20473;-78
2022/07/23 05:35:06;;;;;;;8.27;7.57;;;15.30;99.90;;;;;;4960900;28;20847;-79
2022/07/23 05:37:38;;;;;;;8.97;8.00;;;15.40;99.90;;;;;;4960242;28;20922;-78
2022/07/23 05:40:09;;;;;;;7.57;6.87;;;15.40;99.90;;;;;;4960043;28;20428;-78
2022/07/23 05:42:40;;;;;;;8.77;8.00;;;15.50;99.90;;;;;;4960108;28;20448;-78
2022/07/23 05:45:09;;;;;;;10.60;7.93;;;15.50;99.90;;;;;;4959997;28;20436;-78
2022/07/23 05:47:50;;;;;;;12.17;7.77;;;15.60;99.90;;;;;;4959644;28;20439;-78
2022/07/23 05:50:27;;;;;;;8.60;7.60;;;15.60;99.90;;;;;;4959989;28;20432;-78
2022/07/23 05:53:02;;;;;;;8.90;8.00;;;15.70;99.90;;;;;;4959836;28;20568;-78
2022/07/23 05:55:31;;;;;;;8.43;7.50;;;15.70;99.90;;;;;;4977466;28;20472;-78
2022/07/23 05:58:00;;;;;;;9.63;6.60;;;15.80;99.90;;;;;;4960219;28;20420;-78
2022/07/23 06:00:29;;;;;;;8.27;7.47;;;15.80;99.90;;;;;;4960393;28;20464;-78
2022/07/23 06:02:59;;;;;;;9.67;7.27;;;15.90;99.90;;;;;;4960095;28;20451;-78
2022/07/23 06:05:29;;;;;;;7.97;7.03;;;16.10;99.90;;;;;;4961139;28;20459;-78
2022/07/23 06:07:58;;;;;;;12.23;7.47;;;16.30;99.90;;;;;;4961966;28;20474;-78
2022/07/23 06:10:28;;;;;;;6.87;6.27;;;16.40;99.90;;;;;;4962070;28;20475;-79
2022/07/23 06:12:56;;;;;;;8.17;6.90;;;16.50;99.90;;;;;;4963201;28;20479;-79
2022/07/23 06:15:30;;;;;;;7.20;6.53;;;16.60;99.90;;;;;;4962620;28;20456;-79
2022/07/23 06:18:00;;;;;;;8.57;6.10;;;16.70;99.90;;;;;;4962352;28;20452;-78
2022/07/23 06:20:28;;;;;;;6.13;5.53;;;16.80;99.90;;;;;;4961903;28;20440;-78
2022/07/23 06:22:58;;;;;;;6.43;5.63;;;16.90;99.90;;;;;;4961771;28;20471;-78
2022/07/23 06:25:26;;;;;;;5.90;5.30;;;17.10;99.90;;;;;;4961922;28;21022;-79
2022/07/23 06:27:55;;;;;;;8.67;5.20;;;17.40;99.90;;;;;;4964842;28;20445;-78
2022/07/23 06:30:23;;;;;;;6.13;4.23;;;17.60;99.90;;;;;;4973292;28;20583;-78
2022/07/23 06:32:52;;;;;;;4.97;4.47;;;17.90;99.90;;;;;;4983870;28;21067;-78
2022/07/23 06:35:21;;;;;;;4.97;3.70;;;18.20;99.90;;;;;;4983817;28;20528;-78
2022/07/23 06:37:49;;;;;;;6.00;3.57;;;18.50;99.90;;;;;;4984711;28;20455;-78
2022/07/23 06:40:18;;;;;;;3.80;2.87;;;18.70;99.90;;;;;;4984882;28;20531;-78
2022/07/23 06:42:47;;;;;;;3.60;2.37;;;19.10;99.90;;;;;;4984926;28;20465;-79
2022/07/23 06:45:22;;;;;;;9.93;3.10;;;19.30;99.90;;;;;;4985357;28;20468;-79
2022/07/23 06:47:50;;;;;;;3.97;2.77;;;19.50;99.90;;;;;;4984197;28;20493;-79
2022/07/23 06:50:21;;;;;;;3.30;2.37;;;19.70;99.90;;;;;;4986763;28;20495;-79
2022/07/23 06:52:50;;;;;;;3.97;2.40;;;19.90;99.90;;;;;;4984870;28;21084;-78
2022/07/23 06:55:18;;;;;;;4.27;2.37;;;20.00;99.90;;;;;;4983329;28;20829;-79
2022/07/23 06:57:46;;;;;;;2.90;2.27;;;20.10;99.90;;;;;;5000823;28;20437;-78
2022/07/23 07:00:15;;;;;;;2.43;2.20;;;20.20;99.90;;;;;;4981982;28;20448;-78
2022/07/23 07:02:43;;;;;;;4.87;2.10;;;20.20;99.90;;;;;;4982217;28;20468;-78
2022/07/23 07:05:11;;;;;;;4.47;2.57;;;20.30;99.90;;;;;;4983071;28;20483;-79
2022/07/23 07:07:41;;;;;;;6.13;3.33;;;20.40;99.90;;;;;;4984939;28;21008;-79
2022/07/23 07:10:10;;;;;;;4.87;2.30;;;20.30;99.90;;;;;;5002255;28;20503;-79
2022/07/23 07:12:43;;;;;;;3.37;2.40;;;20.30;99.90;;;;;;5001379;28;20487;-79
2022/07/23 07:15:11;;;;;;;7.87;2.57;;;20.30;99.90;;;;;;4985079;28;20523;-79
2022/07/23 07:17:40;;;;;;;4.60;2.30;;;20.40;99.90;;;;;;5001267;28;20456;-80
2022/07/23 07:20:09;;;;;;;3.63;2.50;;;20.50;99.90;;;;;;4982282;28;20459;-80
2022/07/23 07:22:37;;;;;;;3.07;2.13;;;20.60;99.90;;;;;;4981464;28;20491;-80
2022/07/23 07:25:08;;;;;;;2.67;2.00;;;20.70;99.90;;;;;;4981789;28;20444;-79
2022/07/23 07:27:36;;;;;;;3.03;1.90;;;20.70;99.90;;;;;;4983577;28;20460;-79
2022/07/23 07:30:06;;;;;;;4.77;2.77;;;20.60;99.90;;;;;;4999528;28;21029;-80
2022/07/23 07:32:36;;;;;;;4.47;3.30;;;20.60;99.90;;;;;;5000023;28;20539;-79
2022/07/23 07:35:25;;;;;;;6.50;2.83;;;20.40;99.90;;;;;;4982089;28;20444;-80
2022/07/23 07:37:53;;;;;;;3.63;2.43;;;20.30;99.90;;;;;;4999342;28;20509;-79
2022/07/23 07:40:23;;;;;;;5.17;2.80;;;20.20;99.90;;;;;;4980562;28;20977;-79
2022/07/23 07:42:54;;;;;;;3.57;2.50;;;20.00;99.90;;;;;;4980160;28;20497;-78
2022/07/23 07:45:22;;;;;;;7.67;3.10;;;20.00;99.90;;;;;;4980231;28;20452;-78
2022/07/23 07:47:51;;;;;;;3.27;2.60;;;20.00;99.90;;;;;;4998430;28;20463;-78
2022/07/23 07:50:20;;;;;;;3.80;2.20;;;20.10;99.90;;;;;;4981885;28;20450;-80
2022/07/23 07:52:49;;;;;;;4.27;2.10;;;20.20;99.90;;;;;;5003596;28;20571;-80
2022/07/23 07:55:17;;;;;;;2.93;2.23;;;20.30;99.90;;;;;;4984810;28;20473;-81
2022/07/23 07:57:47;;;;;;;4.03;2.10;;;20.20;99.90;;;;;;5003465;28;20450;-80
2022/07/23 08:00:17;;;;;;;4.37;2.10;;;20.20;99.90;;;;;;4983252;28;20448;-79
2022/07/23 08:02:48;;;;;;;3.60;2.40;;;20.20;99.90;;;;;;5000949;28;20977;-79
2022/07/23 08:05:21;;;;;;;3.17;1.70;;;20.10;99.90;;;;;;5001943;28;20793;-80
2022/07/23 08:07:55;;;;;;;2.57;1.80;;;20.00;99.90;;;;;;4984368;28;20543;-79
2022/07/23 08:10:23;;;;;;;3.17;2.10;;;20.00;99.90;;;;;;4981163;28;20495;-78
2022/07/23 08:12:56;;;;;;;3.40;2.10;;;19.90;99.90;;;;;;4982066;28;20468;-80
2022/07/23 08:15:27;;;;;;;3.43;2.37;;;19.80;99.90;;;;;;4982514;28;20472;-79
2022/07/23 08:17:56;;;;;;;3.97;1.67;;;19.70;99.90;;;;;;4981171;28;20480;-80
2022/07/23 08:20:26;;;;;;;2.70;1.80;;;19.60;99.90;;;;;;4981785;28;20457;-80
2022/07/23 08:22:58;;;;;;;3.73;1.77;;;19.50;99.90;;;;;;4998695;28;20461;-79
2022/07/23 08:25:29;;;;;;;3.60;1.93;;;19.40;99.90;;;;;;4980451;28;20445;-79
2022/07/23 08:27:59;;;;;;;3.30;1.63;;;19.30;99.90;;;;;;4979356;28;20548;-79
2022/07/23 08:30:28;;;;;;;4.13;2.37;;;19.20;99.90;;;;;;4996497;28;20769;-78
2022/07/23 08:33:00;;;;;;;3.40;2.07;;;19.20;99.90;;;;;;4979352;28;20484;-79
2022/07/23 08:35:30;;;;;;;5.67;2.27;;;19.10;99.90;;;;;;4980001;28;20473;-79
2022/07/23 08:38:00;;;;;;;3.10;2.00;;;19.10;99.90;;;;;;4997261;28;20440;-79
2022/07/23 08:40:30;;;;;;;3.17;2.30;;;19.10;99.90;;;;;;4980041;28;20878;-79
2022/07/23 08:43:00;;;;;;;6.13;1.80;;;19.00;99.90;;;;;;4997410;28;20539;-79
2022/07/23 08:45:28;;;;;;;2.50;2.10;;;19.00;99.90;;;;;;4980788;28;20491;-79
2022/07/23 08:47:59;;;;;;;4.20;2.60;;;19.00;99.90;;;;;;4980009;28;20467;-79
2022/07/23 08:50:30;;;;;;;5.73;2.63;;;19.00;99.90;;;;;;4979733;28;20441;-77
2022/07/23 08:53:02;;;;;;;3.20;2.13;;;19.00;99.90;;;;;;4997458;28;20503;-79
2022/07/23 08:55:30;;;;;;;2.50;2.13;;;19.00;99.90;;;;;;4978745;28;20448;-76
2022/07/23 08:58:00;;;;;;;4.23;2.63;;;19.00;99.90;;;;;;4980619;28;20873;-79
2022/07/23 09:00:29;;;;;;;2.67;2.30;;;19.10;99.90;;;;;;5000056;28;20540;-80
2022/07/23 09:02:57;;;;;;;3.17;1.80;;;19.10;99.90;;;;;;4981871;28;20461;-79
2022/07/23 09:05:25;;;;;;;3.00;2.10;;;19.20;99.90;;;;;;4983438;28;20478;-79
2022/07/23 09:08:15;;;;;;;5.57;1.93;;;19.20;99.90;;;;;;4982461;28;20452;-79
2022/07/23 09:10:46;;;;;;;3.03;1.40;;;19.30;99.90;;;;;;4978066;28;20480;-79
2022/07/23 09:13:33;;;;;;;1.87;1.10;;;19.40;99.90;;;;;;5000675;28;20476;-78
2022/07/23 09:16:04;;;;;;;2.23;1.30;;;19.50;99.90;;;;;;4982799;28;20515;-80
2022/07/23 09:18:37;;;;;;;2.40;0.93;;;19.60;99.90;;;;;;5001274;28;20898;-79
2022/07/23 09:21:24;;;;;;;1.60;0.90;;;19.70;99.90;;;;;;4982286;28;20464;-79
2022/07/23 09:23:55;;;;;;;3.57;1.07;;;19.80;99.90;;;;;;4982873;28;20437;-79
2022/07/23 09:26:36;;;;;;;1.73;1.00;;;19.90;99.90;;;;;;4982284;28;20449;-80
2022/07/23 09:29:08;;;;;;;1.83;1.00;;;20.00;99.90;;;;;;5000540;28;20528;-80
2022/07/23 09:31:45;;;;;;;1.60;1.00;;;20.00;99.90;;;;;;4983140;28;20548;-79
2022/07/23 09:34:17;;;;;;;1.83;1.17;;;20.10;99.90;;;;;;4983778;28;20496;-80
2022/07/23 09:36:47;;;;;;;2.10;0.90;;;20.30;99.90;;;;;;4986040;28;20440;-80
2022/07/23 09:39:17;;;;;;;3.00;1.13;;;20.40;99.90;;;;;;4985309;28;20453;-80
2022/07/23 09:41:47;;;;;;;1.70;1.10;;;20.50;99.90;;;;;;4984591;28;20461;-80
2022/07/23 09:44:18;;;;;;;3.30;1.30;;;20.70;99.90;;;;;;4984155;28;20448;-80
2022/07/23 09:46:51;;;;;;;1.90;0.93;;;20.70;99.90;;;;;;5001297;28;20910;-79
2022/07/23 09:49:21;;;;;;;2.20;1.17;;;20.70;99.90;;;;;;4983161;28;20456;-80
2022/07/23 09:51:54;;;;;;;3.00;1.30;;;20.80;99.90;;;;;;4983115;28;20468;-79
2022/07/23 09:54:26;;;;;;;2.33;1.17;;;20.80;99.90;;;;;;5000671;28;20461;-79
2022/07/23 09:56:55;;;;;;;3.00;1.00;;;20.90;99.90;;;;;;4983368;28;20962;-79
2022/07/23 09:59:27;;;;;;;2.00;1.20;;;21.00;99.90;;;;;;4999929;28;20444;-79
2022/07/23 10:01:58;;;;;;;2.30;1.40;;;21.10;99.90;;;;;;5000293;28;20519;-79
2022/07/23 10:04:29;;;;;;;3.27;1.17;;;21.10;99.90;;;;;;5003663;28;20488;-79
2022/07/23 10:07:37;;;;;;;2.10;1.67;;;21.10;99.90;;;;;;4962586;29;20523;-79
2022/07/23 10:10:27;;;;;;;1.50;0.90;;;21.10;99.90;;;;;;5002541;28;20547;-79
2022/07/23 10:16:08;;;;;;;1.60;1.00;;;21.10;99.90;;;;;;4984053;28;20444;-79
2022/07/23 10:18:37;;;;;;;2.47;1.00;;;21.10;99.90;;;;;;4986003;28;20946;-79
2022/07/23 10:21:13;;;;;;;1.63;1.00;;;21.10;99.90;;;;;;4986214;28;20498;-79
2022/07/23 10:23:48;;;;;;;4.77;1.90;;;21.10;99.80;;;;;;5003992;28;20449;-80
2022/07/23 10:26:22;;;;;;;3.10;0.90;;;21.20;99.70;;;;;;4986509;28;20436;-80
2022/07/23 10:29:09;;;;;;;1.50;1.17;;;21.30;99.70;;;;;;4986624;28;20529;-80
2022/07/23 10:31:59;;;;;;;2.27;1.23;;;21.40;99.60;;;;;;5003655;28;20459;-81
2022/07/23 10:34:42;;;;;;;2.03;1.07;;;21.60;99.60;;;;;;4986637;28;20515;-80
2022/07/23 10:37:18;;;;;;;1.83;0.97;;;21.70;99.50;;;;;;4985964;28;20467;-80
2022/07/23 10:39:49;;;;;;;2.60;1.00;;;21.60;99.30;;;;;;5003915;28;20457;-80
2022/07/23 10:42:18;;;;;;;2.00;1.07;;;21.60;99.30;;;;;;4986304;28;20571;-80
2022/07/23 10:44:48;;;;;;;2.33;1.33;;;21.60;99.10;;;;;;4986426;28;20555;-82
2022/07/23 10:47:39;;;;;;;2.23;1.10;;;21.60;98.90;;;;;;5004414;28;20528;-81
2022/07/23 10:50:22;;;;;;;2.33;1.10;;;21.60;98.70;;;;;;4987397;28;20456;-80
2022/07/23 10:53:18;;;;;;;2.10;1.00;;;21.60;98.80;;;;;;5007065;28;20464;-80
2022/07/23 10:55:49;;;;;;;1.73;0.90;;;21.70;98.80;;;;;;5010846;28;20437;-80
2022/07/23 10:58:22;;;;;;;4.30;1.00;;;21.70;98.80;;;;;;5010633;28;20448;-80
2022/07/23 11:00:51;;;;;;;2.50;0.80;;;21.80;98.60;;;;;;5011817;28;20433;-80
2022/07/23 11:03:35;;;;;;;2.13;1.00;;;21.80;98.50;;;;;;4991205;28;20815;-79
2022/07/23 11:06:05;;;;;;;2.40;0.90;;;21.80;98.30;;;;;;4995876;28;20981;-79
2022/07/23 11:08:33;;;;;;;1.70;0.83;;;21.80;98.30;;;;;;4994263;28;20448;-79
2022/07/23 11:11:12;;;;;;;2.37;1.20;;;21.80;98.20;;;;;;4990827;28;20452;-79
2022/07/23 11:13:49;;;;;;;2.43;1.03;;;21.90;98.00;;;;;;4989697;28;20499;-79
2022/07/23 11:16:20;;;;;;;1.90;1.20;;;22.00;98.00;;;;;;5003854;28;20965;-79
2022/07/23 11:19:08;;;;;;;1.67;0.80;;;22.10;97.80;;;;;;4986713;28;20437;-79
2022/07/23 11:21:44;;;;;;;1.50;1.10;;;22.10;97.70;;;;;;5002398;28;20551;-79
2022/07/23 11:24:14;;;;;;;1.90;1.00;;;22.00;97.60;;;;;;4986417;28;20527;-80
2022/07/23 11:26:51;;;;;;;1.73;0.83;;;21.90;97.60;;;;;;4984882;28;20448;-79
2022/07/23 11:29:38;;;;;;;3.90;1.40;;;21.90;97.50;;;;;;5001503;28;20432;-79
2022/07/23 11:32:29;;;;;;;3.70;1.20;;;21.90;97.60;;;;;;5000780;28;20464;-79
2022/07/23 11:34:59;;;;;;;2.63;1.50;;;21.90;97.60;;;;;;5000117;28;20460;-79
2022/07/23 11:37:34;;;;;;;1.87;1.20;;;22.00;97.60;;;;;;4981474;28;20449;-79
2022/07/23 11:40:06;;;;;;;2.33;1.00;;;21.90;97.50;;;;;;4999427;28;20483;-80
2022/07/23 11:42:35;;;;;;;2.33;1.20;;;21.90;97.50;;;;;;4980721;28;20468;-79
2022/07/23 11:45:05;;;;;;;1.70;1.20;;;21.90;97.50;;;;;;4998195;28;20547;-79
2022/07/23 11:47:33;;;;;;;2.73;1.53;;;21.90;97.40;;;;;;4981641;28;20447;-80
2022/07/23 11:50:06;;;;;;;2.10;1.20;;;22.00;97.40;;;;;;4983397;28;20548;-80
2022/07/23 11:52:35;;;;;;;2.13;1.23;;;22.10;97.40;;;;;;4983997;28;20974;-80
2022/07/23 11:55:06;;;;;;;1.40;0.93;;;22.20;97.30;;;;;;5000492;28;20883;-79
2022/07/23 11:57:36;;;;;;;1.60;0.80;;;22.20;97.00;;;;;;5000335;28;20815;-79
2022/07/23 12:00:08;;;;;;;1.97;1.10;;;22.30;96.80;;;;;;5001150;28;20426;-79
2022/07/23 12:02:40;;;;;;;1.60;0.83;;;22.40;96.70;;;;;;5000271;28;20503;-80
2022/07/23 12:05:13;;;;;;;1.60;0.90;;;22.40;96.60;;;;;;4982801;28;20529;-79
2022/07/23 12:07:44;;;;;;;1.40;0.83;;;22.40;96.50;;;;;;5000910;28;20433;-79
2022/07/23 12:10:16;;;;;;;1.60;1.00;;;22.30;96.40;;;;;;5000121;28;20803;-79
2022/07/23 12:12:49;;;;;;;2.87;0.90;;;22.40;96.20;;;;;;4982133;28;20469;-79
2022/07/23 12:15:20;;;;;;;1.40;0.80;;;22.50;96.10;;;;;;5001344;28;20452;-79
2022/07/23 12:17:50;;;;;;;1.30;0.80;;;22.50;95.90;;;;;;5000908;28;20452;-78
2022/07/23 12:20:22;;;;;;;1.60;0.80;;;22.60;95.70;;;;;;4982143;28;20449;-79
2022/07/23 12:22:53;;;;;;;1.70;0.80;;;22.60;95.40;;;;;;4982263;28;20473;-79
2022/07/23 12:25:24;;;;;;;1.87;1.20;;;22.60;95.30;;;;;;4999059;28;20842;-78
2022/07/23 12:28:01;;;;;;;3.60;1.10;;;22.50;95.20;;;;;;4981831;28;20480;-79
2022/07/23 12:30:32;;;;;;;1.73;1.00;;;22.50;95.20;;;;;;4999736;28;20456;-79
2022/07/23 12:33:03;;;;;;;1.80;0.90;;;22.50;95.30;;;;;;4998972;28;20464;-79
2022/07/23 12:35:37;;;;;;;2.30;1.00;;;22.50;95.30;;;;;;5000074;28;20476;-79
2022/07/23 12:38:07;;;;;;;2.20;1.20;;;22.50;95.20;;;;;;4982720;28;20433;-79
2022/07/23 12:40:38;;;;;;;1.83;1.00;;;22.50;95.30;;;;;;4983255;28;20802;-79
2022/07/23 12:43:09;;;;;;;2.60;0.90;;;22.50;95.30;;;;;;4999695;28;20480;-79
2022/07/23 12:45:49;;;;;;;2.03;1.00;;;22.50;95.30;;;;;;4999597;28;20464;-79
2022/07/23 12:48:20;;;;;;;6.03;0.93;;;22.50;95.10;;;;;;4982251;28;20761;-79
2022/07/23 12:50:53;;;;;;;1.93;1.10;;;22.50;94.90;;;;;;4982210;28;20445;-78
2022/07/23 12:53:24;;;;;;;2.33;1.00;;;22.60;94.90;;;;;;4982734;28;20523;-79
2022/07/23 12:56:00;;;;;;;2.70;1.20;;;22.60;94.50;;;;;;4980158;28;20468;-79
2022/07/23 12:58:45;;;;;;;3.20;1.30;;;22.60;94.20;;;;;;4980666;28;20524;-78
2022/07/23 13:01:29;;;;;;;8.07;1.73;;;22.60;94.20;;;;;;4982906;28;20444;-78
2022/07/23 13:04:00;;;;;;;2.17;1.90;;;22.50;94.10;;;;;;4982380;28;20487;-79
2022/07/23 13:06:31;;;;;;;3.67;1.00;;;22.50;94.20;;;;;;4980681;28;20463;-78
2022/07/23 13:09:00;;;;;;;2.47;1.10;;;22.50;94.20;;;;;;4980389;28;20531;-78